LPB weather

El Alto International Airport
La Paz / El Alto, La Paz Department, Bolivia

Public forecast

Using degrees Celsius for public forecast. Weather courtesy of forecast.io.

METAR (pilot weather report)

Retrieved 2019/01/20 03:00 UTC (14 minutes ago):

SLLP 200300Z 07006KT 9999 FEW004 FEW017CB SCT070 BKN200 07/06 Q1040

TAF (pilot weather forecast)

Forecast is more than 12 hours old.

Retrieved 2019/01/18 12:40 UTC (2 days ago):

TAF SLLP 181000Z 1812/1912 12005KT 9999 SCT015 TX17/1820Z TN05/1910Z BECMG 1814/1816 14010KT TEMPO 1817/1821 33010KT VCTSSH FEW020 FEW023CB TEMPO 1908/1911 3000E VCFG FEW002 SCT012